Etusivu
METAR-TAF:

METAR-TAF

Lentoasemat :

Algeciras, Espanja

Leveyspiiri: 36-07-44N, Pituuspiiri: 05-26-28W, korkeus merenpinnasta: 30 m

Tämänhetkinen sää

Tämä raportti tehtiin 44 minuuttia sitten, kello 09.30 UTC
Tuuli 4 kn idästä
Lämpötila 16°C
Kosteus 72%
Ilmanpaine 1011 hPa
Näkyvyys 10 km tai enemmän
ei pilviä alle 1500 m:ssä eikä cumulonimbus-pilviä

METAR: LEAG 200930Z AUTO 09004KT CAVOK 16/11 Q1011

Aika: 12:14 (10:14 UTC)


TAF: puuttuu

Säähavainnot ja -ennusteet yli 4000 lentoasemalta (METAR- ja TAF-raportit).

Käytössä olevat sääasemat on merkitty karttaan keltaisilla ja punaisilla pisteillä.

Aseta hiiri pisteen päälle nähdäksesi sääaseman nimen.

Klikkaa sitten nähdäksesi säähavainnot ja -ennusteet.

Kartan vaihtaminen: klikkaa mustalla rastilla varustettuja vihreitä pisteitä, niin voit zoomata sisään; viivalla varustettua vihreää pistettä, niin voit zoomata ulos tai vihreitä nuolia, niin pääset viereisille kartoille.


METAR-TAF: